D/T METAR WX W/DIR W/SPE G/SPE TEMP DEWP
23/05/19 13:20 EGPI 231220Z 25013KT 220V280 9999 SCT028 12/07 Q1016 WSW (250°) 15.0mph 12°C 7°C
23/05/19 12:50 EGPI 231150Z 25013KT 9999 SCT028 13/07 Q1016 WSW (250°) 15.0mph 13°C 7°C
23/05/19 12:20 EGPI 231120Z 25012KT 9999 SCT028 13/07 Q1016 WSW (250°) 13.8mph 13°C 7°C
23/05/19 11:50 EGPI 231050Z 25012KT 9999 BKN027 13/07 Q1015 WSW (250°) 13.8mph 13°C 7°C
23/05/19 11:20 EGPI 231020Z 25011KT 9999 BKN027 12/07 Q1016 WSW (250°) 12.7mph 12°C 7°C
23/05/19 10:50 EGPI 230950Z 25010KT 9999 BKN026 12/07 Q1016 WSW (250°) 11.5mph 12°C 7°C
23/05/19 10:20 EGPI 230920Z 26009KT 9999 BKN025 12/07 Q1016 W (260°) 10.4mph 12°C 7°C
23/05/19 09:50 EGPI 230850Z 27009KT 9999 BKN025 12/07 Q1016 W (270°) 10.4mph 12°C 7°C
23/05/19 09:20 EGPI 230820Z 28010KT 250V310 9999 BKN027 12/07 Q1015 W (280°) 11.5mph 12°C 7°C
23/05/19 08:50 EGPI 230750Z 28010KT 240V300 9999 BKN028 11/06 Q1015 W (280°) 11.5mph 11°C 6°C
23/05/19 08:20 EGPI 230720Z 27010KT 9999 BKN028 11/06 Q1015 W (270°) 11.5mph 11°C 6°C
23/05/19 07:50 EGPI 230650Z 27010KT 9999 BKN027 10/06 Q1016 W (270°) 11.5mph 10°C 6°C
23/05/19 07:20 EGPI 230620Z AUTO 27009KT 9999 OVC027/// 10/07 Q1016 W (270°) 10.4mph 10°C 7°C
23/05/19 06:50 EGPI 230550Z AUTO 27007KT 240V300 9999 BKN026/// 09/08 Q1015 W (270°) 8.1mph 9°C 8°C
23/05/19 06:20 EGPI 230520Z AUTO 32005KT 270V340 9999 SCT024/// 08/08 Q1015 NW (320°) 5.8mph 8°C 8°C
23/05/19 05:50 EGPI 230450Z AUTO 33006KT 9999 FEW024/// 06/06 Q1015 NNW (330°) 6.9mph 6°C 6°C
23/05/19 05:20 EGPI 230420Z AUTO 33005KT 9999 SCT023/// 06/06 Q1015 NNW (330°) 5.8mph 6°C 6°C
23/05/19 04:50 EGPI 230350Z AUTO 32005KT 280V350 9999 SCT024/// 06/06 Q1015 NW (320°) 5.8mph 6°C 6°C
23/05/19 04:20 EGPI 230320Z AUTO 33005KT 300V360 9999 SCT024/// 06/06 Q1016 NNW (330°) 5.8mph 6°C 6°C
23/05/19 03:50 EGPI 230250Z AUTO VRB02KT 9999 FEW024/// 05/05 Q1016 N (0°) 2.3mph 5°C 5°C
23/05/19 03:20 EGPI 230220Z AUTO 30002KT 9999 FEW024/// 03/03 Q1016 WNW (300°) 2.3mph 3°C 3°C
23/05/19 02:50 EGPI 230150Z AUTO 04001KT 7000 FEW024/// 02/02 Q1016 NE (40°) 1.2mph 2°C 2°C
23/05/19 02:20 EGPI 230120Z AUTO 00000KT 9999 NCD 03/02 Q1016 N (0°) 3°C 2°C
23/05/19 01:50 EGPI 230050Z AUTO 07001KT 9999 NCD 03/02 Q1016 ENE (70°) 1.2mph 3°C 2°C
23/05/19 01:20 EGPI 230020Z AUTO 00000KT 9999 NCD 03/02 Q1017 N (0°) 3°C 2°C
23/05/19 00:50 EGPI 222350Z AUTO 12003KT 9999 NCD 02/02 Q1017 ESE (120°) 3.5mph 2°C 2°C
23/05/19 00:20 EGPI 222320Z AUTO 03003KT 9999 NCD 03/03 Q1017 NNE (30°) 3.5mph 3°C 3°C
22/05/19 23:50 EGPI 222250Z AUTO 01003KT 9999 NCD 04/03 Q1017 N (10°) 3.5mph 4°C 3°C
22/05/19 23:20 EGPI 222220Z AUTO 05002KT 9999 NCD 03/02 Q1017 NE (50°) 2.3mph 3°C 2°C
22/05/19 22:50 EGPI 222150Z AUTO 35004KT 9999 NCD 05/03 Q1017 N (350°) 4.6mph 5°C 3°C
22/05/19 20:50 EGPI 221950Z AUTO 33008KT 9999 NCD 10/05 Q1017 NNW (330°) 9.2mph 10°C 5°C
22/05/19 20:20 EGPI 221920Z AUTO 32011KT 280V350 9999 NCD 11/06 Q1017 NW (320°) 12.7mph 11°C 6°C
22/05/19 19:50 EGPI 221850Z AUTO 32011KT 9999 NCD 12/06 Q1017 NW (320°) 12.7mph 12°C 6°C
22/05/19 19:20 EGPI 221820Z AUTO 32012KT 9999 FEW028/// 12/06 Q1018 NW (320°) 13.8mph 12°C 6°C
22/05/19 18:50 EGPI 221750Z 30011KT 270V340 9999 SCT027 13/06 Q1018 WNW (300°) 12.7mph 13°C 6°C
22/05/19 18:20 EGPI 221720Z 29012KT 260V340 9999 SCT024 13/06 Q1018 WNW (290°) 13.8mph 13°C 6°C
22/05/19 17:50 EGPI 221650Z 30012KT 9999 SCT029 13/06 Q1018 WNW (300°) 13.8mph 13°C 6°C
22/05/19 16:50 EGPI 221550Z 28011KT 250V320 9999 SCT027 13/07 Q1018 W (280°) 12.7mph 13°C 7°C
22/05/19 16:20 EGPI 221520Z 29011KT 9999 SCT030 13/07 Q1018 WNW (290°) 12.7mph 13°C 7°C
22/05/19 15:50 EGPI 221450Z 29012KT 270V330 9999 SCT034 13/05 Q1018 WNW (290°) 13.8mph 13°C 5°C
22/05/19 15:20 EGPI 221420Z 28012KT 250V310 9999 SCT034 13/07 Q1018 W (280°) 13.8mph 13°C 7°C
22/05/19 14:50 EGPI 221350Z 28011KT 250V320 9999 SCT034 14/07 Q1019 W (280°) 12.7mph 14°C 7°C
22/05/19 14:20 EGPI 221320Z 29011KT 250V320 9999 SCT034 14/07 Q1019 WNW (290°) 12.7mph 14°C 7°C
22/05/19 13:50 EGPI 221250Z 29012KT 9999 SCT034 13/06 Q1019 WNW (290°) 13.8mph 13°C 6°C
22/05/19 13:20 EGPI 221220Z 29012KT 250V320 9999 SCT030 13/06 Q1019 WNW (290°) 13.8mph 13°C 6°C
22/05/19 12:50 EGPI 221150Z 29012KT 260V320 9999 SCT030 13/05 Q1019 WNW (290°) 13.8mph 13°C 5°C
22/05/19 12:20 EGPI 221120Z 30011KT 270V350 9999 SCT030 12/06 Q1019 WNW (300°) 12.7mph 12°C 6°C
22/05/19 11:50 EGPI 221050Z 29012KT 260V330 9999 SCT029 12/06 Q1019 WNW (290°) 13.8mph 12°C 6°C